Flight Track Log - Related Links

Times and Time Zones

All times are in EDT time to prevent confusion due to time zone crossing. See the BMJ70 flight status page for this flight to view local times or setup timezone preferences in your user account.

Time Position Orientation Groundspeed Altitude Reporting Facility
EDT Latitude Longitude Course Direction KTS MPH feet Rate Location/Type
Wed 09:02:41 AM 44.8833 -93.1667 358° North 117 135 1,400  Level Minneapolis TRACON
Wed 09:03:35 AM 44.9000 -93.1167 65° Northeast 138 159 1,900 583 Climbing Minneapolis TRACON
Wed 09:04:24 AM 44.9039 -93.0811 81° East 138 159 2,400 595 Climbing Minneapolis Center
Wed 09:05:26 AM 44.9425 -93.0556 25° Northeast 163 188 3,000 634 Climbing Minneapolis Center
Wed 09:06:27 AM 44.9847 -93.0531 North 154 177 3,700 634 Climbing Minneapolis Center
Wed 09:07:29 AM 45.0214 -93.0650 347° North 139 160 4,300 484 Climbing Minneapolis Center
Wed 09:08:00 AM 45.1619 -93.2552 358° North  Level Estimated
Wed 09:08:31 AM 45.0500 -93.0964 322° Northwest 132 152 4,700  Level Minneapolis Center
Wed 09:09:33 AM 45.0819 -93.1336 321° Northwest 149 171 4,900 145 Climbing Minneapolis Center
Wed 09:10:35 AM 45.1206 -93.1733 324° Northwest 170 196 5,000 49 Climbing Minneapolis Center
Wed 09:11:36 AM 45.1686 -93.2194 326° Northwest 174 200 5,000  Level Minneapolis Center
Wed 09:12:38 AM 45.2106 -93.2547 329° Northwest 176 203 5,000 290 Level Minneapolis Center
Wed 09:13:40 AM 45.2506 -93.2878 330° Northwest 167 192 5,600 435 Climbing Minneapolis Center
Wed 09:14:42 AM 45.2881 -93.3139 334° Northwest 153 176 5,900 145 Climbing Minneapolis Center
Wed 09:15:44 AM 45.3275 -93.3458 330° Northwest 163 188 5,900 49 Level Minneapolis Center
Wed 09:16:45 AM 45.3744 -93.3692 341° North 177 204 6,000 49 Climbing Minneapolis Center
Wed 09:17:47 AM 45.4358 -93.3744 357° North 184 212 6,000  Level Minneapolis Center
Wed 09:18:49 AM 45.4856 -93.3839 352° North 181 208 6,000  Level Minneapolis Center
Wed 09:19:51 AM 45.5369 -93.3942 352° North 185 213 6,000  Level Minneapolis Center
Wed 09:20:52 AM 45.5878 -93.4006 355° North 184 212 6,000  Level Minneapolis Center
Wed 09:21:54 AM 45.6394 -93.4003 360° North 186 214 6,000  Level Minneapolis Center
Wed 09:22:56 AM 45.6914 -93.4033 358° North 188 216 6,000  Level Minneapolis Center
Wed 09:23:57 AM 45.7428 -93.4058 358° North 186 214 6,000  Level Minneapolis Center
Wed 09:24:59 AM 45.8053 -93.4072 359° North 187 215 6,000  Level Minneapolis Center
Wed 09:26:01 AM 45.8575 -93.4058 North 189 217 6,000  Level Minneapolis Center
Wed 09:27:02 AM 45.9092 -93.4097 357° North 187 215 6,000  Level Minneapolis Center
Wed 09:28:04 AM 45.9614 -93.4128 358° North 187 215 6,000  Level Minneapolis Center
Wed 09:29:06 AM 46.0136 -93.4164 357° North 188 216 6,000  Level Minneapolis Center
Wed 09:30:07 AM 46.0656 -93.4219 356° North 188 216 6,000  Level Minneapolis Center
Wed 09:31:09 AM 46.1172 -93.4292 354° North 188 216 6,000  Level Minneapolis Center
Wed 09:32:11 AM 46.1797 -93.4331 358° North 188 216 6,000 48 Level Minneapolis Center
Wed 09:33:13 AM 46.2317 -93.4408 354° North 187 215 6,100 49 Climbing Minneapolis Center
Wed 09:34:14 AM 46.2853 -93.4461 356° North 189 217 6,100  Level Minneapolis Center
Wed 09:35:16 AM 46.3369 -93.4525 355° North 189 217 6,100  Level Minneapolis Center
Wed 09:36:18 AM 46.3897 -93.4556 358° North 189 217 6,100  Level Minneapolis Center
Wed 09:37:19 AM 46.4428 -93.4642 354° North 191 220 6,100  Level Minneapolis Center
Wed 09:38:21 AM 46.4958 -93.4669 358° North 191 220 6,100  Level Minneapolis Center
Wed 09:39:23 AM 46.5483 -93.4700 358° North 190 219 6,100  Level Minneapolis Center
Wed 09:40:24 AM 46.6125 -93.4750 357° North 191 220 6,100  Level Minneapolis Center
Wed 09:41:26 AM 46.6653 -93.4794 357° North 191 220 6,100  Level Minneapolis Center
Wed 09:42:28 AM 46.7183 -93.4836 357° North 191 220 6,100  Level Minneapolis Center
Wed 09:43:29 AM 46.7706 -93.4869 357° North 190 219 6,100  Level Minneapolis Center
Wed 09:44:31 AM 46.8239 -93.4917 357° North 191 220 6,100 -435 Level Minneapolis Center
Wed 09:45:33 AM 46.8792 -93.4967 356° North 193 222 5,200 -871 Descending Minneapolis Center
Wed 09:46:35 AM 46.9439 -93.4883 North 213 245 4,300 -537 Descending Minneapolis Center
Wed 09:47:36 AM 47.0039 -93.4817 North 219 252 4,100 -146 Descending Minneapolis Center
Wed 09:48:38 AM 47.0658 -93.4800 North 197 227 4,000 -387 Descending Minneapolis Center
Wed 09:49:40 AM 47.1097 -93.4736 North 178 205 3,300 -871 Descending Minneapolis Center
Wed 09:50:42 AM 47.1494 -93.4919 343° North 159 183 2,200 -537 Descending Minneapolis Center
Wed 09:51:43 AM 47.1875 -93.5086 343° North 157 181 2,200 -44 Level Minneapolis Center
Wed 09:52:57 AM 47.2281 -93.5267 343° North 159 183 2,100 353 Descending Minneapolis Center
Wed 09:53:59 AM 47.2678 -93.5414 346° North 148 170 3,000 774 Climbing Minneapolis Center
Wed 09:55:01 AM 47.3072 -93.5461 355° North 145 167 3,700 774 Climbing Minneapolis Center
Wed 09:56:03 AM 47.3533 -93.5389 North 141 162 4,600 774 Climbing Minneapolis Center
Wed 09:57:05 AM 47.3922 -93.5325 North 139 160 5,300 683 Climbing Minneapolis Center
Wed 09:58:06 AM 47.4308 -93.5236 North 139 160 6,000 293 Climbing Minneapolis Center
Wed 09:59:08 AM 47.4764 -93.5150 North 151 174 5,900  Descending Minneapolis Center
Wed 10:00:10 AM 47.5275 -93.5089 North 169 194 6,000 48 Climbing Minneapolis Center
Wed 10:01:12 AM 47.5792 -93.5017 North 179 206 6,000  Level Minneapolis Center
Wed 10:02:14 AM 47.6303 -93.4919 North 183 211 6,000  Level Minneapolis Center
Wed 10:03:16 AM 47.6814 -93.4903 North 183 211 6,000  Level Minneapolis Center
Wed 10:04:17 AM 47.7419 -93.4808 North 183 211 6,000  Level Minneapolis Center
Wed 10:05:19 AM 47.7911 -93.4586 17° North 184 212 6,000  Level Minneapolis Center
Wed 10:06:21 AM 47.8406 -93.4381 16° North 184 212 6,000  Level Minneapolis Center
Wed 10:07:23 AM 47.8906 -93.4186 15° North 185 213 6,000  Level Minneapolis Center
Wed 10:08:25 AM 47.9403 -93.3997 14° North 185 213 6,000  Level Minneapolis Center
Wed 10:09:27 AM 47.9903 -93.3806 14° North 185 213 6,000  Level Minneapolis Center
Wed 10:10:28 AM 48.0394 -93.3556 19° North 186 214 6,000  Level Minneapolis Center
Wed 10:11:30 AM 48.0981 -93.3247 19° North 186 214 6,000 -387 Level Minneapolis Center
Wed 10:12:32 AM 48.1506 -93.2997 18° North 190 219 5,200 -726 Descending Minneapolis Center
Wed 10:13:34 AM 48.2044 -93.2656 23° Northeast 199 229 4,500 -581 Descending Minneapolis Center
Wed 10:14:36 AM 48.2586 -93.2336 21° North 205 236 4,000 -242 Descending Minneapolis Center
Wed 10:15:38 AM 48.3114 -93.2153 13° North 202 232 4,000 -242 Level Minneapolis Center
Wed 10:16:40 AM 48.3653 -93.2294 350° North 199 229 3,500 -242 Descending Minneapolis Center
Wed 10:17:42 AM 48.4278 -93.2328 358° North 193 222 3,500 -48 Level Minneapolis Center
Wed 10:18:44 AM 48.4708 -93.2589 338° Northwest 181 208 3,400 -242 Descending Minneapolis Center
Wed 10:19:46 AM 48.4986 -93.3131 308° West 166 191 3,000 -387 Descending Minneapolis Center
Wed 10:21:00 AM 48.5372 -93.3783 312° West  Level FlightAware
Wed 10:28:00 AM 48.5500 -93.4000 336° Northwest  Level FlightAware
Wed 10:29:00 AM 48.5031 -93.4040 336° Northwest  Level Estimated
Wed 10:30:00 AM 48.5500 -93.4000 336° Northwest  Level FlightAware
Wed 10:31:00 AM 48.5031 -93.4040 336° Northwest  Level Estimated
Wed 10:32:00 AM 48.5500 -93.4000 336° Northwest  Level FlightAware
Wed 10:33:00 AM 48.5031 -93.4040 336° Northwest  Level Estimated
Wed 10:34:00 AM 48.5500 -93.4000 336° Northwest  Level FlightAware
Wed 10:35:00 AM 48.5031 -93.4040 336° Northwest  Level Estimated
Wed 10:36:00 AM 48.5500 -93.4000 336° Northwest  Level FlightAware
Wed 10:37:00 AM 48.5031 -93.4040 336° Northwest  Level Estimated
Wed 10:38:00 AM 48.5500 -93.4000 336° Northwest  Level FlightAware

Login

Don't have an account? Register now (free) for customized features, flight alerts, and more!